Time;durP1;ratioP1;P1;durP2;ratioP2;P2;SDS_P1;SDS_P2;PMS_P1;PMS_P2;Temp;Humidity;BMP_temperature;BMP_pressure;BME280_temperature;BME280_humidity;BME280_pressure;Samples;Min_cycle;Max_cycle;Signal;HPM_P1;HPM_P2
2023/10/07 00:00:54;;;;;;;5.20;2.45;;;19.50;64.50;21.10;101923.00;;;;5081633;28;20705;-76
2023/10/07 00:03:22;;;;;;;5.03;2.42;;;19.50;64.50;21.10;101918.00;;;;5071762;28;20681;-76
2023/10/07 00:05:50;;;;;;;3.80;2.33;;;19.50;64.60;21.10;101933.00;;;;5069564;28;20203;-76
2023/10/07 00:08:19;;;;;;;9.57;2.20;;;19.60;64.70;21.10;101927.00;;;;5082726;28;20219;-76
2023/10/07 00:10:49;;;;;;;6.70;2.50;;;19.60;64.70;21.10;101929.00;;;;5071693;28;20199;-75
2023/10/07 00:13:19;;;;;;;4.03;2.05;;;19.60;64.80;21.10;101931.00;;;;5081031;28;20226;-76
2023/10/07 00:15:49;;;;;;;5.40;2.70;;;19.60;64.80;21.10;101940.00;;;;5075431;28;20199;-76
2023/10/07 00:18:16;;;;;;;6.05;3.47;;;19.60;65.00;21.20;101931.00;;;;5081190;28;20227;-75
2023/10/07 00:20:48;;;;;;;5.65;2.42;;;19.60;64.80;21.10;101931.00;;;;5081464;28;20237;-76
2023/10/07 00:23:20;;;;;;;7.03;2.47;;;19.60;64.90;21.20;101945.00;;;;5079198;28;20230;-76
2023/10/07 00:25:50;;;;;;;4.80;2.40;;;19.60;64.90;21.20;101932.00;;;;5069456;28;20226;-76
2023/10/07 00:28:28;;;;;;;6.28;2.92;;;19.60;64.90;21.20;101931.00;;;;5073453;28;20223;-76
2023/10/07 00:31:01;;;;;;;6.68;2.85;;;19.70;64.90;21.20;101938.00;;;;5069837;28;20206;-76
2023/10/07 00:33:30;;;;;;;3.67;2.33;;;19.70;64.80;21.20;101924.00;;;;5074922;28;20206;-76
2023/10/07 00:36:04;;;;;;;8.10;2.67;;;19.70;64.90;21.20;101920.00;;;;5080921;28;20187;-76
2023/10/07 00:38:37;;;;;;;5.95;3.28;;;19.70;64.80;21.20;101932.00;;;;5072237;28;20211;-77
2023/10/07 00:41:11;;;;;;;5.18;2.35;;;19.70;65.00;21.20;101933.00;;;;5069142;28;20202;-77
2023/10/07 00:43:38;;;;;;;6.97;2.83;;;19.70;65.00;21.20;101928.00;;;;5069392;28;20203;-76
2023/10/07 00:46:10;;;;;;;5.97;3.15;;;19.70;65.00;21.20;101933.00;;;;5069419;28;20202;-77
2023/10/07 00:48:47;;;;;;;8.20;2.70;;;19.70;65.10;21.20;101931.00;;;;5071403;28;20235;-77
2023/10/07 00:51:17;;;;;;;12.75;3.45;;;19.70;65.10;21.20;101917.00;;;;5069095;28;20288;-77
2023/10/07 00:53:53;;;;;;;5.47;2.92;;;19.70;65.20;21.20;101911.00;;;;5073411;28;20229;-77
2023/10/07 00:56:27;;;;;;;8.48;2.80;;;19.70;65.20;21.20;101905.00;;;;5072454;28;20582;-77
2023/10/07 00:58:56;;;;;;;6.15;2.88;;;19.70;65.20;21.20;101905.00;;;;5071813;28;20677;-77
2023/10/07 01:01:23;;;;;;;5.32;2.70;;;19.70;65.20;21.30;101898.00;;;;5067665;28;20280;-77
2023/10/07 01:03:51;;;;;;;7.30;3.10;;;19.80;65.20;21.30;101910.00;;;;5069345;28;20311;-77
2023/10/07 01:06:25;;;;;;;6.47;2.75;;;19.80;65.30;21.30;101922.00;;;;5083899;28;20204;-76
2023/10/07 01:09:04;;;;;;;5.78;2.40;;;19.80;65.30;21.30;101924.00;;;;5072797;28;20226;-77
2023/10/07 01:11:32;;;;;;;8.13;2.60;;;19.80;65.30;21.30;101919.00;;;;5069381;28;20191;-77
2023/10/07 01:14:00;;;;;;;6.45;2.88;;;19.80;65.30;21.30;101923.00;;;;5087294;28;20205;-77
2023/10/07 01:16:32;;;;;;;8.75;3.08;;;19.70;65.20;21.30;101924.00;;;;5081557;28;20289;-76
2023/10/07 01:19:18;;;;;;;8.35;3.00;;;19.80;65.40;21.30;101921.00;;;;5084616;28;20332;-76
2023/10/07 01:21:55;;;;;;;8.02;2.78;;;19.80;65.40;21.30;101917.00;;;;5077236;28;20278;-77
2023/10/07 01:24:41;;;;;;;3.92;3.10;;;19.80;65.40;21.30;101919.00;;;;5074281;28;20210;-77
2023/10/07 01:27:18;;;;;;;5.93;2.60;;;19.80;65.50;21.30;101926.00;;;;5068166;28;20194;-77
2023/10/07 01:29:49;;;;;;;4.60;2.95;;;19.80;65.40;21.30;101926.00;;;;5072315;28;21079;-77
2023/10/07 01:32:17;;;;;;;8.10;2.72;;;19.80;65.50;21.30;101919.00;;;;5075366;28;20716;-77
2023/10/07 01:34:49;;;;;;;9.15;3.33;;;19.80;65.50;21.30;101915.00;;;;5084732;28;20640;-76
2023/10/07 01:37:21;;;;;;;5.57;2.40;;;19.80;65.60;21.30;101913.00;;;;5078740;28;20230;-77
2023/10/07 01:39:52;;;;;;;8.85;3.53;;;19.80;65.60;21.30;101915.00;;;;5077211;28;20252;-76
2023/10/07 01:42:26;;;;;;;7.22;3.05;;;19.80;65.70;21.40;101914.00;;;;5074909;28;20206;-77
2023/10/07 01:44:57;;;;;;;4.63;2.60;;;19.80;65.60;21.40;101923.00;;;;5071726;28;20248;-77
2023/10/07 01:47:25;;;;;;;8.38;3.40;;;19.80;65.60;21.30;101902.00;;;;5081063;28;20210;-76
2023/10/07 01:49:55;;;;;;;7.40;3.53;;;19.80;65.60;21.30;101906.00;;;;5072120;28;20230;-77
2023/10/07 01:52:26;;;;;;;6.78;3.17;;;19.80;65.60;21.40;101895.00;;;;5068380;28;20206;-77
2023/10/07 01:54:58;;;;;;;9.43;3.72;;;19.80;66.40;21.30;101895.00;;;;5083467;28;20226;-77
2023/10/07 01:57:26;;;;;;;11.43;3.42;;;19.90;65.80;21.40;101889.00;;;;5073167;28;20241;-77
2023/10/07 01:59:53;;;;;;;10.65;3.55;;;19.80;65.80;21.40;101886.00;;;;5080105;28;20225;-76
2023/10/07 02:02:25;;;;;;;6.05;2.97;;;19.90;65.90;21.40;101894.00;;;;5084678;28;20964;-77
2023/10/07 02:04:55;;;;;;;7.20;3.22;;;19.80;65.90;21.40;101900.00;;;;5082172;28;20217;-77
2023/10/07 02:07:23;;;;;;;8.07;3.15;;;19.80;65.90;21.40;101906.00;;;;5085649;28;20206;-77
2023/10/07 02:09:54;;;;;;;5.90;3.20;;;19.80;65.90;21.40;101900.00;;;;5084278;28;20221;-77
2023/10/07 02:12:24;;;;;;;5.43;4.00;;;19.80;65.90;21.40;101903.00;;;;5076511;28;20191;-77
2023/10/07 02:14:52;;;;;;;5.65;3.60;;;19.90;66.00;21.40;101892.00;;;;5072113;28;20234;-77
2023/10/07 02:17:25;;;;;;;7.32;3.72;;;19.90;66.10;21.40;101884.00;;;;5079235;28;20226;-77
2023/10/07 02:20:09;;;;;;;5.78;3.30;;;19.90;66.00;21.40;101891.00;;;;5080628;28;20199;-77
2023/10/07 02:22:38;;;;;;;6.25;3.95;;;19.90;66.10;21.50;101883.00;;;;5087657;28;20663;-76
2023/10/07 02:25:07;;;;;;;10.20;3.85;;;19.90;66.00;21.50;101880.00;;;;5079148;28;20191;-76
2023/10/07 02:27:41;;;;;;;9.90;3.58;;;19.90;66.10;21.50;101890.00;;;;5085211;28;20209;-76
2023/10/07 02:30:19;;;;;;;5.72;3.20;;;19.90;66.20;21.50;101888.00;;;;5087986;28;20221;-76
2023/10/07 02:32:47;;;;;;;8.23;3.78;;;19.90;66.10;21.50;101890.00;;;;5085384;28;20553;-76
2023/10/07 02:35:20;;;;;;;10.77;3.20;;;19.90;66.10;21.50;101890.00;;;;5088666;28;20248;-77
2023/10/07 02:37:50;;;;;;;8.23;3.70;;;19.90;66.10;21.50;101885.00;;;;5081200;28;21043;-77
2023/10/07 02:40:21;;;;;;;7.75;3.67;;;19.90;66.20;21.50;101884.00;;;;5082874;28;20203;-77
2023/10/07 02:42:51;;;;;;;6.80;3.03;;;20.00;66.30;21.50;101881.00;;;;5087457;28;20228;-77
2023/10/07 02:45:28;;;;;;;4.45;3.03;;;20.00;66.40;21.50;101880.00;;;;5090121;28;20206;-76
2023/10/07 02:48:00;;;;;;;7.82;2.85;;;20.00;66.30;21.50;101879.00;;;;5071378;28;20571;-77
2023/10/07 02:50:31;;;;;;;8.35;3.53;;;20.00;66.30;21.60;101878.00;;;;5078846;28;20198;-77
2023/10/07 02:53:01;;;;;;;7.38;3.47;;;20.00;66.30;21.60;101885.00;;;;5074269;28;20245;-77
2023/10/07 02:55:46;;;;;;;6.70;3.30;;;20.00;66.40;21.60;101885.00;;;;5086463;28;20209;-77
2023/10/07 02:58:26;;;;;;;7.95;3.38;;;20.00;66.40;21.60;101888.00;;;;5076792;28;20308;-77
2023/10/07 03:01:10;;;;;;;8.05;3.15;;;20.10;66.40;21.60;101888.00;;;;5077306;28;20307;-77
2023/10/07 03:03:40;;;;;;;6.47;3.63;;;20.10;66.30;21.60;101893.00;;;;5076276;28;20202;-77
2023/10/07 03:06:08;;;;;;;7.97;3.38;;;20.10;66.30;21.60;101893.00;;;;5079955;28;20191;-77
2023/10/07 03:08:49;;;;;;;8.50;3.78;;;20.10;66.40;21.60;101894.00;;;;5081237;28;20219;-77
2023/10/07 03:11:21;;;;;;;8.82;3.55;;;20.10;66.40;21.60;101890.00;;;;5072227;28;20823;-77
2023/10/07 03:13:56;;;;;;;7.85;3.53;;;20.10;66.40;21.60;101888.00;;;;5077537;28;20206;-77
2023/10/07 03:16:42;;;;;;;7.30;3.67;;;20.10;66.40;21.70;101889.00;;;;5069982;28;20206;-77
2023/10/07 03:19:20;;;;;;;8.13;3.42;;;20.10;66.40;21.70;101887.00;;;;5073631;28;20206;-77
2023/10/07 03:22:09;;;;;;;10.15;3.97;;;20.10;66.40;21.70;101884.00;;;;5075337;28;20264;-77
2023/10/07 03:24:42;;;;;;;7.07;3.55;;;20.10;66.40;21.70;101883.00;;;;5076024;28;20209;-77
2023/10/07 03:27:21;;;;;;;6.05;3.20;;;20.10;66.40;21.70;101878.00;;;;5077703;28;20225;-77
2023/10/07 03:30:13;;;;;;;10.30;4.55;;;20.10;66.50;21.70;101872.00;;;;5072776;28;20840;-76
2023/10/07 03:32:57;;;;;;;7.88;4.18;;;20.20;66.50;21.70;101874.00;;;;5068294;28;20218;-76
2023/10/07 03:36:07;;;;;;;5.45;3.55;;;20.20;66.60;21.70;101871.00;;;;5076921;28;20600;-77
2023/10/07 03:38:35;;;;;;;6.63;3.35;;;20.20;66.50;21.70;101873.00;;;;5079601;28;20565;-77
2023/10/07 03:41:09;;;;;;;7.43;3.05;;;20.20;66.50;21.70;101876.00;;;;5071656;28;20207;-77
2023/10/07 03:43:37;;;;;;;8.68;3.40;;;20.20;66.60;21.70;101873.00;;;;5079880;28;20195;-76
2023/10/07 03:46:05;;;;;;;7.55;3.83;;;20.20;66.60;21.70;101871.00;;;;5072652;28;20192;-77
2023/10/07 03:48:33;;;;;;;7.22;2.75;;;20.20;66.70;21.70;101870.00;;;;5074113;28;20205;-77
2023/10/07 03:51:05;;;;;;;6.03;2.80;;;20.20;66.70;21.70;101859.00;;;;5079198;28;20190;-77
2023/10/07 03:53:32;;;;;;;6.95;3.28;;;20.20;66.70;21.80;101863.00;;;;5085802;28;20285;-77
2023/10/07 03:56:06;;;;;;;6.68;2.75;;;20.20;67.40;21.70;101860.00;;;;5082007;28;20201;-77
2023/10/07 03:58:37;;;;;;;5.47;3.10;;;20.20;66.70;21.70;101860.00;;;;5075319;28;20222;-77
2023/10/07 04:01:11;;;;;;;9.95;3.22;;;20.20;66.70;21.80;101863.00;;;;5077418;28;20234;-77
2023/10/07 04:03:46;;;;;;;6.88;3.00;;;20.20;66.80;21.80;101873.00;;;;5075225;28;20193;-76
2023/10/07 04:06:14;;;;;;;8.02;3.22;;;20.20;66.80;21.80;101870.00;;;;5082953;28;20279;-77
2023/10/07 04:08:41;;;;;;;8.07;3.13;;;20.30;66.80;21.80;101871.00;;;;5082578;28;20195;-77
2023/10/07 04:11:16;;;;;;;8.30;3.63;;;20.30;66.80;21.70;101870.00;;;;5083097;28;20568;-77
2023/10/07 04:13:44;;;;;;;5.95;3.38;;;20.30;67.10;21.80;101870.00;;;;5070113;28;20279;-76
2023/10/07 04:16:22;;;;;;;9.75;4.32;;;20.30;67.00;21.80;101877.00;;;;5072985;28;20249;-77
2023/10/07 04:18:50;;;;;;;6.70;2.97;;;20.30;67.70;21.80;101882.00;;;;5083632;28;20202;-76
2023/10/07 04:21:17;;;;;;;10.70;3.90;;;20.30;67.00;21.80;101882.00;;;;5088728;28;20204;-77
2023/10/07 04:23:45;;;;;;;8.63;3.38;;;20.30;67.00;21.80;101875.00;;;;5082548;28;20201;-77
2023/10/07 04:26:19;;;;;;;8.30;3.45;;;20.30;67.10;21.80;101875.00;;;;5080770;28;20198;-77
2023/10/07 04:28:48;;;;;;;5.35;3.15;;;20.30;67.10;21.90;101861.00;;;;5080573;28;20197;-77
2023/10/07 04:31:17;;;;;;;5.90;3.20;;;20.30;67.10;21.90;101876.00;;;;5075241;28;20198;-77
2023/10/07 04:33:48;;;;;;;5.65;2.97;;;20.30;67.20;21.90;101875.00;;;;5079818;28;20619;-77
2023/10/07 04:36:18;;;;;;;7.05;4.22;;;20.40;67.20;21.90;101872.00;;;;5074910;28;20258;-77
2023/10/07 04:38:54;;;;;;;8.00;3.25;;;20.40;67.20;21.90;101864.00;;;;5071695;28;20691;-76
2023/10/07 04:41:31;;;;;;;6.95;2.85;;;20.40;67.20;21.90;101873.00;;;;5081228;28;20198;-77
2023/10/07 04:44:20;;;;;;;8.50;3.30;;;20.40;67.20;22.00;101879.00;;;;5072046;28;20202;-77
2023/10/07 04:46:56;;;;;;;9.60;3.25;;;20.40;67.20;21.90;101875.00;;;;5083518;28;20212;-77
2023/10/07 04:49:36;;;;;;;7.38;2.72;;;20.40;67.20;21.90;101877.00;;;;5074071;28;20230;-77
2023/10/07 04:52:05;;;;;;;6.78;3.75;;;20.40;67.20;22.00;101886.00;;;;5085856;28;20198;-77
2023/10/07 04:54:35;;;;;;;7.60;3.13;;;20.40;67.20;22.00;101872.00;;;;5076748;28;20821;-77
2023/10/07 04:57:09;;;;;;;8.85;3.38;;;20.50;67.20;22.00;101862.00;;;;5080427;28;20217;-76
2023/10/07 04:59:45;;;;;;;6.45;3.30;;;20.50;67.20;22.00;101859.00;;;;5071054;28;20240;-77
2023/10/07 05:02:15;;;;;;;10.07;3.08;;;20.50;67.30;22.00;101847.00;;;;5082142;28;20279;-77
2023/10/07 05:04:49;;;;;;;9.40;3.20;;;20.50;67.30;22.00;101847.00;;;;5082770;28;20279;-76
2023/10/07 05:07:24;;;;;;;5.75;2.72;;;20.50;67.30;22.00;101846.00;;;;5071683;28;20613;-76
2023/10/07 05:09:51;;;;;;;9.57;3.45;;;20.50;67.30;22.00;101841.00;;;;5071953;28;20349;-77
2023/10/07 05:12:19;;;;;;;5.18;2.88;;;20.50;67.30;22.00;101848.00;;;;5084133;28;20191;-77
2023/10/07 05:14:48;;;;;;;5.90;2.35;;;20.50;67.30;22.00;101852.00;;;;5071854;28;20194;-77
2023/10/07 05:17:16;;;;;;;5.55;2.65;;;20.50;67.30;22.10;101857.00;;;;5079850;28;20295;-76
2023/10/07 05:19:43;;;;;;;7.53;3.22;;;20.50;67.40;22.10;101854.00;;;;5079676;28;20198;-76
2023/10/07 05:22:15;;;;;;;6.07;3.78;;;20.60;67.40;22.10;101853.00;;;;5077424;28;20229;-77
2023/10/07 05:24:46;;;;;;;4.95;2.92;;;20.60;67.50;22.10;101843.00;;;;5081291;28;20206;-76
2023/10/07 05:27:15;;;;;;;8.02;3.40;;;20.50;67.40;22.10;101843.00;;;;5078814;28;20202;-77
2023/10/07 05:29:43;;;;;;;10.05;3.40;;;20.50;67.30;22.10;101848.00;;;;5073413;28;20965;-76
2023/10/07 05:32:12;;;;;;;9.45;3.15;;;20.50;67.30;22.10;101855.00;;;;5080740;28;20239;-77
2023/10/07 05:34:41;;;;;;;7.28;3.45;;;20.60;67.40;22.10;101854.00;;;;5071664;28;20276;-77
2023/10/07 05:37:11;;;;;;;8.95;3.22;;;20.50;67.50;22.10;101847.00;;;;5086505;28;20195;-76
2023/10/07 05:39:41;;;;;;;7.40;3.30;;;20.60;67.50;22.10;101860.00;;;;5079283;28;20256;-76
2023/10/07 05:42:11;;;;;;;9.73;3.80;;;20.60;67.70;22.10;101857.00;;;;5088179;28;20202;-76
2023/10/07 05:44:38;;;;;;;6.35;3.13;;;20.50;67.60;22.10;101870.00;;;;5085166;28;20198;-76
2023/10/07 05:47:06;;;;;;;8.23;3.25;;;20.50;67.60;22.10;101860.00;;;;5060913;28;20210;-76
2023/10/07 05:49:33;;;;;;;5.65;2.88;;;20.60;67.70;22.10;101862.00;;;;5081967;28;20214;-76
2023/10/07 05:52:03;;;;;;;8.10;3.17;;;20.60;67.70;22.10;101858.00;;;;5074849;28;20226;-76
2023/10/07 05:54:31;;;;;;;5.38;2.88;;;20.60;67.80;22.10;101870.00;;;;5071934;28;20191;-76
2023/10/07 05:56:59;;;;;;;10.52;3.40;;;20.60;67.70;22.10;101870.00;;;;5071868;28;20195;-76
2023/10/07 05:59:32;;;;;;;10.27;3.17;;;20.60;67.80;22.10;101872.00;;;;5074948;28;20289;-77
2023/10/07 06:02:01;;;;;;;7.88;3.42;;;20.60;67.80;22.10;101875.00;;;;5071788;28;20257;-76
2023/10/07 06:04:29;;;;;;;7.30;4.13;;;20.60;67.80;22.10;101884.00;;;;5075074;28;20276;-76
2023/10/07 06:06:56;;;;;;;9.43;3.80;;;20.60;67.90;22.10;101887.00;;;;5078080;28;20256;-77
2023/10/07 06:09:24;;;;;;;7.80;3.92;;;20.60;67.90;22.10;101884.00;;;;5082538;28;20225;-75
2023/10/07 06:11:51;;;;;;;15.77;4.45;;;20.60;67.90;22.10;101885.00;;;;5087228;28;20206;-76
2023/10/07 06:14:19;;;;;;;13.20;5.15;;;20.70;68.00;22.20;101889.00;;;;5084009;28;20711;-77
2023/10/07 06:16:46;;;;;;;10.85;4.65;;;20.60;67.90;22.20;101870.00;;;;5081509;28;20552;-77
2023/10/07 06:19:13;;;;;;;7.95;4.43;;;20.60;67.90;22.20;101878.00;;;;5078407;28;20195;-76
2023/10/07 06:21:50;;;;;;;10.93;3.40;;;20.70;68.10;22.20;101884.00;;;;5079015;28;20183;-77
2023/10/07 06:24:20;;;;;;;10.35;4.20;;;20.70;68.00;22.20;101876.00;;;;5072371;28;20656;-77
2023/10/07 06:26:49;;;;;;;7.95;3.67;;;20.70;68.00;22.20;101886.00;;;;5085919;28;20191;-76
2023/10/07 06:29:19;;;;;;;8.40;3.67;;;20.70;68.10;22.20;101892.00;;;;5076791;28;20190;-76
2023/10/07 06:31:49;;;;;;;10.68;4.35;;;20.70;68.00;22.20;101887.00;;;;5083527;28;20215;-77
2023/10/07 06:34:25;;;;;;;7.75;3.70;;;20.70;68.10;22.30;101892.00;;;;5086260;28;20714;-77
2023/10/07 06:36:54;;;;;;;9.00;4.20;;;20.70;68.10;22.30;101892.00;;;;5072014;28;20199;-76
2023/10/07 06:39:27;;;;;;;6.28;3.28;;;20.70;68.10;22.30;101894.00;;;;5075080;28;20206;-77
2023/10/07 06:41:56;;;;;;;9.63;3.72;;;20.80;68.10;22.30;101891.00;;;;5082662;28;20203;-76
2023/10/07 06:44:24;;;;;;;8.77;3.72;;;20.80;68.20;22.30;101903.00;;;;5088767;28;20198;-77
2023/10/07 06:46:55;;;;;;;10.75;3.92;;;20.80;68.20;22.30;101894.00;;;;5087778;28;20190;-77
2023/10/07 06:49:23;;;;;;;7.80;3.60;;;20.80;68.20;22.30;101894.00;;;;5073786;28;20194;-77
2023/10/07 06:51:54;;;;;;;9.13;3.40;;;20.80;68.20;22.30;101895.00;;;;5079209;28;20202;-77
2023/10/07 06:54:23;;;;;;;8.50;3.70;;;20.80;68.20;22.40;101896.00;;;;5077235;28;20209;-76
2023/10/07 06:56:51;;;;;;;8.85;3.38;;;20.90;68.30;22.40;101893.00;;;;5087274;28;20202;-76
2023/10/07 06:59:27;;;;;;;8.27;4.35;;;20.90;68.20;22.40;101885.00;;;;5081680;28;20195;-76
2023/10/07 07:01:55;;;;;;;11.95;3.90;;;20.90;68.30;22.40;101896.00;;;;5075800;28;20568;-77
2023/10/07 07:04:23;;;;;;;8.13;3.35;;;20.90;68.20;22.50;101902.00;;;;5076718;28;20696;-76
2023/10/07 07:09:50;;;;;;;7.60;3.92;;;21.00;68.20;22.50;101900.00;;;;5069677;28;20207;-77
2023/10/07 07:12:21;;;;;;;7.68;4.22;;;21.00;68.10;22.50;101907.00;;;;5071069;28;20285;-77
2023/10/07 07:14:59;;;;;;;10.25;4.47;;;21.00;68.10;22.50;101905.00;;;;5070336;28;20209;-76
2023/10/07 07:17:43;;;;;;;7.55;3.92;;;21.00;68.10;22.50;101920.00;;;;5081549;28;20206;-76
2023/10/07 07:20:33;;;;;;;6.32;3.70;;;21.00;68.00;22.50;101927.00;;;;5090116;28;20652;-77
2023/10/07 07:23:03;;;;;;;5.90;4.00;;;21.00;68.00;22.60;101921.00;;;;5087347;28;20195;-76
2023/10/07 07:25:36;;;;;;;7.97;4.07;;;21.10;68.10;22.60;101917.00;;;;5070029;28;20191;-75
2023/10/07 07:28:06;;;;;;;7.43;4.05;;;21.10;68.10;22.60;101924.00;;;;5069896;28;20188;-76
2023/10/07 07:30:35;;;;;;;8.77;4.28;;;21.10;68.10;22.60;101925.00;;;;5075142;28;20226;-77
2023/10/07 07:33:08;;;;;;;10.10;4.70;;;21.10;68.10;22.70;101929.00;;;;5082008;28;20218;-76
2023/10/07 07:35:40;;;;;;;9.13;4.45;;;21.10;68.10;22.70;101928.00;;;;5070903;28;20538;-76
2023/10/07 07:41:05;;;;;;;11.90;4.25;;;21.20;68.00;22.60;101942.00;;;;5077726;28;20338;-77
2023/10/07 07:43:33;;;;;;;11.13;4.40;;;21.20;68.10;22.70;101939.00;;;;5073358;28;20660;-77
2023/10/07 07:46:26;;;;;;;8.60;4.18;;;21.20;67.90;22.60;101936.00;;;;5071105;28;20195;-77
2023/10/07 07:48:53;;;;;;;6.15;3.78;;;21.20;68.10;22.80;101949.00;;;;5081304;28;20207;-77
2023/10/07 07:51:24;;;;;;;5.63;4.53;;;21.20;67.90;22.80;101943.00;;;;5075153;28;20222;-76
2023/10/07 07:53:52;;;;;;;6.93;4.30;;;21.30;68.00;22.80;101940.00;;;;5072885;28;20249;-77
2023/10/07 07:56:20;;;;;;;9.27;4.05;;;21.30;67.90;22.80;101944.00;;;;5076511;28;20195;-76
2023/10/07 07:58:48;;;;;;;9.88;4.88;;;21.30;67.90;22.80;101946.00;;;;5070667;28;20416;-76
2023/10/07 08:01:19;;;;;;;10.23;4.82;;;21.40;68.00;22.80;101946.00;;;;5079201;28;20231;-77
2023/10/07 08:03:47;;;;;;;7.97;5.05;;;21.30;67.80;22.90;101957.00;;;;5069683;28;20274;-77
2023/10/07 08:06:19;;;;;;;10.80;5.47;;;21.40;67.80;22.90;101956.00;;;;5084020;28;20328;-77
2023/10/07 08:08:47;;;;;;;9.07;4.88;;;21.40;67.80;22.90;101954.00;;;;5078625;28;20663;-76
2023/10/07 08:11:17;;;;;;;6.75;4.57;;;21.40;67.80;22.90;101950.00;;;;5077570;28;20241;-76
2023/10/07 08:13:46;;;;;;;10.90;5.10;;;21.40;67.80;22.90;101939.00;;;;5075969;28;20202;-77
2023/10/07 08:16:17;;;;;;;7.60;5.18;;;21.40;67.70;23.00;101923.00;;;;5075158;28;20201;-76
2023/10/07 08:18:48;;;;;;;10.00;5.65;;;21.40;67.70;23.00;101937.00;;;;5081085;28;20205;-76
2023/10/07 08:21:16;;;;;;;6.40;4.35;;;21.50;67.70;23.00;101917.00;;;;5069613;28;20648;-76
2023/10/07 08:23:46;;;;;;;9.38;5.38;;;21.50;67.60;23.10;101937.00;;;;5076166;28;20330;-76
2023/10/07 08:26:20;;;;;;;9.15;5.45;;;21.50;67.70;23.10;101918.00;;;;5081325;28;20190;-76
2023/10/07 08:28:59;;;;;;;10.85;5.43;;;21.60;67.70;23.10;101920.00;;;;5072498;28;20203;-75
2023/10/07 08:31:37;;;;;;;9.50;5.78;;;21.60;67.50;23.10;101923.00;;;;5084666;28;20649;-76
2023/10/07 08:34:10;;;;;;;8.52;5.13;;;21.60;67.30;23.10;101931.00;;;;5076816;28;20571;-76
2023/10/07 08:36:43;;;;;;;9.25;4.63;;;21.60;67.30;23.10;101927.00;;;;5071726;28;20205;-76
2023/10/07 08:39:11;;;;;;;16.38;6.50;;;21.70;67.30;23.20;101928.00;;;;5070541;28;20205;-76
2023/10/07 08:41:40;;;;;;;8.55;5.50;;;21.70;67.20;23.20;101935.00;;;;5076301;28;20658;-75
2023/10/07 08:44:13;;;;;;;7.38;4.20;;;21.70;67.10;23.20;101936.00;;;;5080258;28;20237;-76
2023/10/07 08:46:40;;;;;;;10.65;5.60;;;21.70;67.10;23.30;101930.00;;;;5081321;28;20198;-75
2023/10/07 08:49:15;;;;;;;11.10;4.88;;;21.80;67.30;23.30;101942.00;;;;5081123;28;20686;-76
2023/10/07 08:51:44;;;;;;;7.63;4.43;;;21.80;67.20;23.40;101936.00;;;;5079035;28;20225;-76
2023/10/07 08:54:17;;;;;;;8.68;4.72;;;21.80;67.10;23.40;101934.00;;;;5073064;28;20194;-76
2023/10/07 08:56:54;;;;;;;7.40;4.55;;;21.90;67.10;23.40;101929.00;;;;5072655;28;20205;-76
2023/10/07 08:59:24;;;;;;;7.20;4.40;;;21.90;67.50;23.50;101924.00;;;;5075297;28;20191;-76
2023/10/07 09:01:57;;;;;;;11.23;4.80;;;22.00;66.90;23.50;101924.00;;;;5073249;28;20233;-76
2023/10/07 09:04:31;;;;;;;6.90;4.72;;;22.00;66.90;23.50;101924.00;;;;5076101;28;20202;-76
2023/10/07 09:06:59;;;;;;;10.00;4.75;;;22.00;66.90;23.60;101923.00;;;;5074394;28;20197;-76
2023/10/07 09:09:38;;;;;;;9.90;5.00;;;22.10;66.80;23.60;101916.00;;;;5068589;28;20206;-76
2023/10/07 09:12:14;;;;;;;8.65;4.88;;;22.10;66.80;23.70;101906.00;;;;5071847;28;20741;-76
2023/10/07 09:14:46;;;;;;;8.38;4.68;;;22.20;66.90;23.80;101915.00;;;;5079779;28;20576;-76
2023/10/07 09:17:14;;;;;;;6.75;3.72;;;22.20;66.90;23.90;101917.00;;;;5079957;28;20214;-76
2023/10/07 09:19:47;;;;;;;8.70;4.00;;;22.30;67.00;23.90;101921.00;;;;5067681;28;20195;-76
2023/10/07 09:22:18;;;;;;;8.73;4.13;;;22.40;67.10;24.00;101920.00;;;;5067728;28;21232;-76
2023/10/07 09:24:45;;;;;;;7.47;3.60;;;22.40;66.90;24.10;101928.00;;;;5079707;28;20205;-75
2023/10/07 09:27:14;;;;;;;7.43;3.90;;;22.50;66.70;24.10;101928.00;;;;5076003;28;20273;-76
2023/10/07 09:29:49;;;;;;;6.40;4.03;;;22.60;66.50;24.10;101932.00;;;;5071486;28;20199;-75
2023/10/07 09:32:21;;;;;;;9.25;3.60;;;22.60;66.30;24.20;101936.00;;;;5075349;28;20340;-75
2023/10/07 09:34:55;;;;;;;7.60;3.22;;;22.70;66.30;24.20;101928.00;;;;5076211;28;20202;-76
2023/10/07 09:37:26;;;;;;;12.63;4.10;;;22.70;66.10;24.30;101944.00;;;;5073582;28;20737;-76
2023/10/07 09:39:55;;;;;;;9.45;4.00;;;22.80;66.20;24.40;101938.00;;;;5070841;28;20244;-75
2023/10/07 09:42:27;;;;;;;8.20;3.85;;;22.80;66.20;24.50;101939.00;;;;5082926;28;20257;-76
2023/10/07 09:45:10;;;;;;;8.00;3.80;;;22.90;66.20;24.50;101941.00;;;;5087278;28;20210;-75
2023/10/07 09:47:38;;;;;;;7.75;3.70;;;23.00;66.10;24.60;101946.00;;;;5083730;28;20195;-75
2023/10/07 09:50:19;;;;;;;6.22;3.65;;;23.10;66.20;24.70;101943.00;;;;5068675;28;20254;-75
2023/10/07 09:52:52;;;;;;;5.80;3.67;;;23.20;66.10;24.80;101939.00;;;;5067053;28;20198;-75
2023/10/07 09:56:00;;;;;;;13.27;3.33;;;23.30;66.00;24.80;101942.00;;;;5075521;28;20213;-75
2023/10/07 09:58:59;;;;;;;12.52;3.92;;;23.40;65.60;24.90;101946.00;;;;5072620;28;20257;-77
2023/10/07 10:01:39;;;;;;;6.30;3.22;;;23.50;65.40;25.00;101942.00;;;;5075554;28;20270;-76
2023/10/07 10:04:46;;;;;;;6.00;2.83;;;23.60;65.40;25.00;101949.00;;;;5076925;28;20199;-77
2023/10/07 10:07:40;;;;;;;9.82;2.97;;;23.60;64.80;25.10;101938.00;;;;5049869;28;20195;-77
2023/10/07 10:10:12;;;;;;;7.00;3.05;;;23.70;64.80;25.30;101946.00;;;;5078028;28;20256;-76
2023/10/07 10:12:56;;;;;;;7.45;2.65;;;23.80;65.00;25.30;101947.00;;;;5070033;28;20238;-76
2023/10/07 10:18:41;;;;;;;7.13;2.92;;;24.00;64.40;25.40;101948.00;;;;5074350;28;20804;-78
2023/10/07 10:21:13;;;;;;;10.10;3.30;;;24.00;64.30;25.50;101939.00;;;;5078746;28;20207;-77
2023/10/07 10:23:44;;;;;;;10.25;3.50;;;24.10;64.00;25.50;101941.00;;;;5076428;28;20195;-77
2023/10/07 10:26:20;;;;;;;11.85;3.58;;;24.20;64.10;25.60;101946.00;;;;5090196;28;20210;-78
2023/10/07 10:29:04;;;;;;;10.20;2.78;;;24.20;63.80;25.60;101947.00;;;;5079089;28;20206;-76
2023/10/07 10:31:33;;;;;;;6.43;2.80;;;24.20;63.20;25.60;101940.00;;;;5073898;28;20236;-78
2023/10/07 10:34:04;;;;;;;5.15;2.78;;;24.30;64.00;25.70;101940.00;;;;5072276;28;20570;-78
2023/10/07 10:36:35;;;;;;;11.52;3.53;;;24.30;63.10;25.70;101935.00;;;;5078285;28;20581;-78
2023/10/07 10:39:14;;;;;;;9.93;3.60;;;24.30;62.80;25.70;101928.00;;;;5081707;28;20203;-77
2023/10/07 10:41:41;;;;;;;7.88;2.55;;;24.40;62.60;25.70;101936.00;;;;5074125;28;20220;-77
2023/10/07 10:44:10;;;;;;;9.77;3.38;;;24.30;62.70;25.70;101948.00;;;;5091599;28;20202;-78
2023/10/07 10:46:46;;;;;;;7.97;2.70;;;24.40;62.50;25.70;101942.00;;;;5077832;28;20214;-77
2023/10/07 10:49:16;;;;;;;10.63;2.45;;;24.40;62.20;25.80;101943.00;;;;5079097;28;20330;-77
2023/10/07 10:51:50;;;;;;;7.75;2.65;;;24.40;62.30;25.70;101941.00;;;;5069692;28;20223;-77
2023/10/07 10:54:20;;;;;;;7.20;2.28;;;24.50;62.20;25.70;101944.00;;;;5076866;28;20190;-78
2023/10/07 10:56:49;;;;;;;5.63;2.10;;;24.50;62.10;25.80;101953.00;;;;5069239;28;20199;-77
2023/10/07 10:59:17;;;;;;;9.70;3.00;;;24.50;62.20;25.80;101949.00;;;;5081165;28;20663;-77
2023/10/07 11:01:49;;;;;;;9.75;2.60;;;24.50;62.30;25.90;101945.00;;;;5087808;28;20268;-77
2023/10/07 11:04:19;;;;;;;7.35;2.40;;;24.50;62.40;26.00;101954.00;;;;5081708;28;20788;-77
2023/10/07 11:06:50;;;;;;;4.80;2.80;;;24.50;62.40;26.00;101946.00;;;;5084430;28;20232;-77
2023/10/07 11:09:26;;;;;;;9.40;3.28;;;24.60;62.40;26.00;101959.00;;;;5081485;28;20251;-77
2023/10/07 11:11:56;;;;;;;6.18;2.20;;;24.60;62.30;26.10;101966.00;;;;5075467;28;20218;-77
2023/10/07 11:14:23;;;;;;;7.70;2.53;;;24.70;62.10;26.10;101963.00;;;;5077546;28;20209;-77
2023/10/07 11:16:52;;;;;;;5.75;2.45;;;24.70;61.90;26.10;101968.00;;;;5067590;28;20204;-76